createdAt,value
2018-07-13T00:00:38.515Z,16.46
2018-07-13T00:01:38.505Z,16.58
2018-07-13T00:02:38.496Z,16.60
2018-07-13T00:03:59.494Z,16.49
2018-07-13T00:04:38.482Z,16.52
2018-07-13T00:05:38.468Z,16.34
2018-07-13T00:06:38.461Z,16.31
2018-07-13T00:07:38.450Z,16.35
2018-07-13T00:08:38.442Z,16.28
2018-07-13T00:09:59.446Z,16.28
2018-07-13T00:10:38.425Z,16.38
2018-07-13T00:11:38.411Z,16.38
2018-07-13T00:12:38.401Z,16.25
2018-07-13T00:13:38.395Z,16.24
2018-07-13T00:14:38.379Z,16.21
2018-07-13T00:15:59.373Z,16.25
2018-07-13T00:16:38.361Z,16.23
2018-07-13T00:17:38.357Z,16.27
2018-07-13T00:18:38.352Z,16.30
2018-07-13T00:19:38.338Z,16.23
2018-07-13T00:20:38.318Z,16.28
2018-07-13T00:21:59.325Z,16.20
2018-07-13T00:22:38.307Z,16.27
2018-07-13T00:23:38.297Z,16.17
2018-07-13T00:24:38.289Z,16.23
2018-07-13T00:25:38.273Z,16.09
2018-07-13T00:26:38.270Z,15.94
2018-07-13T00:27:59.268Z,15.90
2018-07-13T00:28:38.247Z,15.96
2018-07-13T00:29:38.270Z,15.93
2018-07-13T00:30:38.230Z,15.96
2018-07-13T00:31:38.220Z,15.90
2018-07-13T00:32:38.216Z,15.97
2018-07-13T00:33:59.206Z,16.01
2018-07-13T00:34:38.199Z,16.01
2018-07-13T00:35:38.179Z,16.05
2018-07-13T00:36:38.175Z,16.05
2018-07-13T00:37:38.163Z,16.00
2018-07-13T00:38:38.161Z,15.93
2018-07-13T00:39:59.154Z,16.00
2018-07-13T00:40:38.129Z,16.01
2018-07-13T00:41:38.119Z,16.02
2018-07-13T00:42:38.116Z,16.00
2018-07-13T00:43:38.106Z,16.00
2018-07-13T00:44:38.094Z,16.04
2018-07-13T00:45:59.096Z,16.02
2018-07-13T00:46:38.076Z,16.02
2018-07-13T00:47:38.060Z,16.02
2018-07-13T00:48:38.056Z,15.96
2018-07-13T00:49:38.048Z,15.94
2018-07-13T00:50:38.031Z,15.93
2018-07-13T00:51:59.033Z,16.04
2018-07-13T00:52:38.019Z,16.04
2018-07-13T00:53:38.003Z,16.01
2018-07-13T00:54:38.000Z,16.02
2018-07-13T00:55:37.986Z,16.01
2018-07-13T00:56:38.034Z,16.08
2018-07-13T00:57:58.976Z,16.05
2018-07-13T00:58:37.959Z,16.00
2018-07-13T00:59:37.950Z,16.01
2018-07-13T01:00:37.933Z,16.01
2018-07-13T01:01:37.926Z,16.00
2018-07-13T01:02:37.923Z,16.02
2018-07-13T01:03:58.913Z,16.00
2018-07-13T01:04:37.897Z,15.96
2018-07-13T01:05:37.889Z,15.92
2018-07-13T01:06:37.879Z,15.86
2018-07-13T01:07:37.871Z,15.84
2018-07-13T01:08:37.862Z,15.92
2018-07-13T01:09:58.856Z,15.87
2018-07-13T01:10:37.840Z,16.01
2018-07-13T01:11:37.835Z,15.92
2018-07-13T01:12:37.816Z,15.90
2018-07-13T01:13:37.814Z,15.96
2018-07-13T01:14:37.805Z,15.93
2018-07-13T01:15:58.797Z,16.00
2018-07-13T01:16:37.780Z,15.93
2018-07-13T01:17:37.777Z,15.89
2018-07-13T01:18:37.769Z,15.92
2018-07-13T01:19:37.753Z,15.72
2018-07-13T01:20:37.743Z,15.76
2018-07-13T01:21:58.743Z,15.60
2018-07-13T01:22:37.725Z,15.65
2018-07-13T01:23:37.714Z,15.60
2018-07-13T01:24:37.705Z,15.60
2018-07-13T01:25:37.692Z,15.64
2018-07-13T01:26:37.691Z,15.64
2018-07-13T01:27:58.680Z,15.53
2018-07-13T01:28:37.664Z,15.62
2018-07-13T01:29:37.655Z,15.57
2018-07-13T01:30:37.644Z,15.60
2018-07-13T01:31:37.638Z,15.62
2018-07-13T01:32:37.628Z,15.54
2018-07-13T01:33:58.623Z,15.54
2018-07-13T01:34:37.600Z,15.53
2018-07-13T01:35:37.594Z,15.59
2018-07-13T01:36:37.587Z,15.57
2018-07-13T01:37:37.574Z,15.53
2018-07-13T01:38:37.570Z,15.53
2018-07-13T01:39:58.563Z,15.67
2018-07-13T01:40:37.549Z,15.64
2018-07-13T01:41:37.537Z,15.57
2018-07-13T01:42:37.529Z,15.67
2018-07-13T01:43:37.513Z,15.57
2018-07-13T01:44:37.507Z,15.67
2018-07-13T01:45:58.509Z,15.60
2018-07-13T01:46:37.482Z,15.62
2018-07-13T01:47:37.475Z,15.60
2018-07-13T01:48:37.464Z,15.68
2018-07-13T01:49:37.459Z,15.57
2018-07-13T01:50:37.446Z,15.60
2018-07-13T01:51:58.446Z,15.53
2018-07-13T01:52:37.424Z,15.51
2018-07-13T01:53:37.420Z,15.60
2018-07-13T01:54:37.401Z,15.53
2018-07-13T01:55:37.457Z,15.46
2018-07-13T01:56:37.385Z,15.39
2018-07-13T01:57:58.381Z,15.36
2018-07-13T01:58:37.365Z,15.35
2018-07-13T01:59:37.359Z,15.19
2018-07-13T02:00:37.345Z,15.31
2018-07-13T02:01:37.331Z,15.25
2018-07-13T02:02:37.331Z,15.29
2018-07-13T02:03:58.321Z,15.29
2018-07-13T02:04:37.346Z,15.20
2018-07-13T02:05:37.300Z,15.27
2018-07-13T02:06:37.283Z,15.23
2018-07-13T02:07:37.276Z,15.21
2018-07-13T02:08:37.263Z,15.25
2018-07-13T02:09:58.263Z,15.23
2018-07-13T02:10:37.243Z,15.23
2018-07-13T02:11:37.238Z,15.29
2018-07-13T02:12:37.230Z,15.19
2018-07-13T02:13:37.211Z,15.27
2018-07-13T02:14:37.211Z,15.23
2018-07-13T02:15:58.203Z,15.31
2018-07-13T02:16:37.187Z,15.25
2018-07-13T02:17:37.175Z,15.21
2018-07-13T02:18:37.175Z,15.28
2018-07-13T02:19:37.159Z,15.28
2018-07-13T02:20:37.150Z,15.36
2018-07-13T02:21:58.144Z,15.34
2018-07-13T02:22:37.123Z,15.34
2018-07-13T02:23:37.116Z,15.36
2018-07-13T02:24:37.109Z,15.41
2018-07-13T02:25:37.103Z,15.43
2018-07-13T02:26:37.085Z,15.34
2018-07-13T02:27:58.082Z,15.34
2018-07-13T02:28:37.059Z,15.34
2018-07-13T02:29:37.059Z,15.28
2018-07-13T02:30:37.044Z,15.27
2018-07-13T02:31:37.038Z,15.25
2018-07-13T02:32:37.025Z,15.27
2018-07-13T02:33:58.082Z,15.27
2018-07-13T02:34:37.001Z,15.29
2018-07-13T02:35:36.995Z,15.28
2018-07-13T02:36:36.985Z,15.25
2018-07-13T02:37:36.986Z,15.27
2018-07-13T02:38:36.963Z,15.27
2018-07-13T02:39:57.954Z,15.32
2018-07-13T02:40:36.937Z,15.27
2018-07-13T02:41:36.925Z,15.29
2018-07-13T02:42:36.925Z,15.34
2018-07-13T02:43:36.908Z,15.36
2018-07-13T02:44:36.906Z,15.32
2018-07-13T02:45:57.902Z,15.35
2018-07-13T02:46:36.881Z,15.34
2018-07-13T02:47:36.870Z,15.35
2018-07-13T02:48:36.860Z,15.32
2018-07-13T02:49:36.861Z,15.34
2018-07-13T02:50:36.844Z,15.32
2018-07-13T02:51:57.828Z,15.23
2018-07-13T02:52:36.824Z,15.21
2018-07-13T02:53:36.810Z,15.31
2018-07-13T02:54:36.804Z,15.23
2018-07-13T02:55:36.793Z,15.23
2018-07-13T02:56:36.780Z,15.28
2018-07-13T02:57:57.781Z,15.28
2018-07-13T02:58:36.792Z,15.23
2018-07-13T02:59:36.752Z,15.28
2018-07-13T03:00:36.747Z,15.25
2018-07-13T03:01:36.727Z,15.27
2018-07-13T03:02:36.722Z,15.27
2018-07-13T03:03:57.714Z,15.35
2018-07-13T03:04:36.698Z,15.34
2018-07-13T03:05:36.686Z,15.34
2018-07-13T03:06:36.680Z,15.35
2018-07-13T03:07:36.667Z,15.36
2018-07-13T03:08:36.663Z,15.38
2018-07-13T03:09:57.657Z,15.38
2018-07-13T03:10:36.651Z,15.41
2018-07-13T03:11:36.633Z,15.36
2018-07-13T03:12:36.616Z,15.31
2018-07-13T03:13:36.607Z,15.35
2018-07-13T03:14:36.595Z,15.32
2018-07-13T03:15:57.592Z,15.29
2018-07-13T03:16:36.579Z,15.27
2018-07-13T03:17:36.564Z,15.27
2018-07-13T03:18:36.556Z,15.27
2018-07-13T03:19:36.551Z,15.27
2018-07-13T03:20:36.536Z,15.34
2018-07-13T03:21:57.549Z,15.34
2018-07-13T03:22:36.520Z,15.32
2018-07-13T03:23:36.541Z,15.31
2018-07-13T03:24:36.499Z,15.31
2018-07-13T03:25:36.485Z,15.34
2018-07-13T03:26:36.477Z,15.31
2018-07-13T03:27:57.468Z,15.34
2018-07-13T03:28:36.460Z,15.35
2018-07-13T03:29:36.449Z,15.41
2018-07-13T03:30:36.432Z,15.36
2018-07-13T03:31:36.422Z,15.35
2018-07-13T03:32:36.407Z,15.27
2018-07-13T03:33:57.408Z,15.35
2018-07-13T03:34:36.397Z,15.27
2018-07-13T03:35:36.381Z,15.25
2018-07-13T03:36:36.373Z,15.31
2018-07-13T03:37:36.363Z,15.34
2018-07-13T03:38:36.351Z,15.28
2018-07-13T03:39:57.346Z,15.29
2018-07-13T03:40:36.332Z,15.29
2018-07-13T03:41:36.334Z,15.35
2018-07-13T03:42:36.314Z,15.27
2018-07-13T03:43:36.295Z,15.25
2018-07-13T03:44:36.288Z,15.28
2018-07-13T03:45:57.284Z,15.19
2018-07-13T03:46:36.273Z,15.27
2018-07-13T03:47:36.261Z,15.21
2018-07-13T03:48:36.247Z,15.23
2018-07-13T03:49:36.237Z,15.31
2018-07-13T03:50:36.237Z,15.32
2018-07-13T03:51:57.225Z,15.29
2018-07-13T03:52:36.209Z,15.25
2018-07-13T03:53:36.196Z,15.29
2018-07-13T03:54:36.184Z,15.25
2018-07-13T03:55:36.180Z,15.19
2018-07-13T03:56:36.164Z,15.19
2018-07-13T03:57:57.160Z,15.13
2018-07-13T03:58:36.145Z,15.19
2018-07-13T03:59:36.141Z,15.16
2018-07-13T04:00:36.183Z,15.16
2018-07-13T04:01:36.116Z,15.16
2018-07-13T04:02:36.108Z,15.20
2018-07-13T04:03:57.103Z,15.16
2018-07-13T04:04:36.085Z,15.16
2018-07-13T04:05:36.071Z,15.19
2018-07-13T04:06:36.174Z,15.16
2018-07-13T04:07:36.054Z,15.14
2018-07-13T04:08:36.038Z,15.14
2018-07-13T04:09:57.040Z,15.07
2018-07-13T04:10:36.019Z,15.21
2018-07-13T04:11:36.011Z,15.16
2018-07-13T04:12:36.001Z,15.13
2018-07-13T04:13:35.992Z,15.07
2018-07-13T04:14:36.030Z,15.13
2018-07-13T04:15:56.977Z,15.19
2018-07-13T04:16:35.962Z,15.11
2018-07-13T04:17:35.960Z,15.21
2018-07-13T04:18:35.938Z,15.14
2018-07-13T04:19:35.932Z,15.16
2018-07-13T04:20:35.916Z,15.17
2018-07-13T04:21:56.906Z,15.17
2018-07-13T04:22:35.900Z,15.16
2018-07-13T04:23:35.881Z,15.23
2018-07-13T04:24:35.877Z,15.25
2018-07-13T04:25:35.876Z,15.16
2018-07-13T04:26:35.856Z,15.16
2018-07-13T04:27:56.855Z,15.11
2018-07-13T04:28:42.865Z,15.21
2018-07-13T04:29:35.827Z,15.16
2018-07-13T04:30:35.814Z,15.19
2018-07-13T04:31:35.807Z,15.14
2018-07-13T04:32:35.789Z,15.20
2018-07-13T04:33:56.786Z,15.17
2018-07-13T04:34:35.774Z,15.17
2018-07-13T04:35:35.764Z,15.14
2018-07-13T04:36:35.761Z,15.19
2018-07-13T04:37:35.746Z,15.17
2018-07-13T04:38:35.731Z,15.25
2018-07-13T04:39:56.720Z,15.23
2018-07-13T04:40:35.708Z,15.25
2018-07-13T04:41:35.704Z,15.29
2018-07-13T04:42:35.688Z,15.29
2018-07-13T04:43:35.673Z,15.28
2018-07-13T04:44:35.661Z,15.19
2018-07-13T04:45:56.663Z,15.29
2018-07-13T04:46:35.647Z,15.28
2018-07-13T04:47:35.639Z,15.27
2018-07-13T04:48:35.632Z,15.25
2018-07-13T04:49:35.616Z,15.29
2018-07-13T04:50:35.609Z,15.27
2018-07-13T04:51:56.628Z,15.34
2018-07-13T04:52:35.584Z,15.28
2018-07-13T04:53:35.575Z,15.28
2018-07-13T04:54:35.566Z,15.32
2018-07-13T04:55:35.554Z,15.32
2018-07-13T04:56:35.548Z,15.28
2018-07-13T04:57:56.545Z,15.31
2018-07-13T04:58:35.526Z,15.27
2018-07-13T04:59:35.520Z,15.29
2018-07-13T05:00:35.555Z,15.32
2018-07-13T05:01:35.495Z,15.32
2018-07-13T05:02:35.480Z,15.29
2018-07-13T05:03:56.482Z,15.28
2018-07-13T05:04:35.463Z,15.27
2018-07-13T05:05:35.454Z,15.28
2018-07-13T05:06:35.451Z,15.19
2018-07-13T05:07:35.429Z,15.23
2018-07-13T05:08:35.427Z,15.16
2018-07-13T05:09:56.418Z,15.17
2018-07-13T05:10:35.402Z,15.20
2018-07-13T05:11:35.401Z,15.10
2018-07-13T05:12:35.383Z,15.14
2018-07-13T05:13:35.370Z,15.07
2018-07-13T05:14:35.365Z,15.06
2018-07-13T05:15:56.376Z,14.98
2018-07-13T05:16:35.342Z,15.06
2018-07-13T05:17:35.333Z,15.03
2018-07-13T05:18:35.323Z,15.03
2018-07-13T05:19:35.311Z,15.09
2018-07-13T05:20:35.306Z,14.92
2018-07-13T05:21:56.295Z,15.10
2018-07-13T05:22:35.278Z,15.02
2018-07-13T05:23:35.270Z,15.06
2018-07-13T05:24:35.252Z,15.07
2018-07-13T05:25:35.250Z,15.02
2018-07-13T05:26:35.234Z,14.98
2018-07-13T05:27:56.233Z,15.02
2018-07-13T05:28:35.217Z,14.96
2018-07-13T05:29:35.204Z,15.09
2018-07-13T05:30:35.196Z,15.03
2018-07-13T05:31:35.185Z,15.03
2018-07-13T05:32:35.181Z,15.10
2018-07-13T05:33:56.168Z,15.01
2018-07-13T05:34:35.152Z,15.14
2018-07-13T05:35:35.138Z,15.02
2018-07-13T05:36:35.136Z,15.10
2018-07-13T05:37:35.122Z,15.06
2018-07-13T05:38:35.115Z,15.11
2018-07-13T05:39:56.107Z,15.17
2018-07-13T05:40:35.093Z,15.13
2018-07-13T05:41:35.083Z,15.17
2018-07-13T05:42:35.064Z,15.20
2018-07-13T05:43:35.061Z,15.21
2018-07-13T05:44:35.061Z,15.19
2018-07-13T05:45:56.047Z,15.25
2018-07-13T05:46:35.029Z,15.21
2018-07-13T05:47:35.022Z,15.19
2018-07-13T05:48:35.000Z,15.23
2018-07-13T05:49:35.021Z,15.14
2018-07-13T05:50:34.984Z,15.17
2018-07-13T05:51:55.976Z,15.16
2018-07-13T05:52:34.964Z,15.17
2018-07-13T05:53:34.960Z,15.17
2018-07-13T05:54:34.965Z,15.16
2018-07-13T05:55:34.932Z,15.10
2018-07-13T05:56:34.931Z,15.14
2018-07-13T05:57:55.925Z,15.14
2018-07-13T05:58:34.912Z,15.07
2018-07-13T05:59:34.904Z,15.17
2018-07-13T06:00:34.885Z,15.14
2018-07-13T06:01:34.873Z,15.19
2018-07-13T06:02:34.864Z,15.17
2018-07-13T06:03:55.872Z,15.19
2018-07-13T06:04:34.849Z,15.21
2018-07-13T06:05:34.837Z,15.23
2018-07-13T06:06:34.821Z,15.23
2018-07-13T06:07:34.821Z,15.29
2018-07-13T06:08:34.811Z,15.36
2018-07-13T06:09:55.801Z,15.35
2018-07-13T06:10:34.784Z,15.54
2018-07-13T06:11:34.772Z,15.60
2018-07-13T06:12:34.763Z,15.82
2018-07-13T06:13:34.753Z,15.94
2018-07-13T06:14:34.755Z,16.09
2018-07-13T06:15:55.736Z,16.11
2018-07-13T06:16:34.781Z,16.27
2018-07-13T06:17:34.718Z,16.28
2018-07-13T06:18:34.697Z,16.41
2018-07-13T06:19:34.692Z,16.52
2018-07-13T06:20:34.675Z,16.56
2018-07-13T06:21:55.678Z,16.71
2018-07-13T06:22:34.687Z,16.78
2018-07-13T06:23:34.654Z,16.86
2018-07-13T06:24:34.637Z,16.93
2018-07-13T06:25:34.631Z,16.89
2018-07-13T06:26:34.625Z,17.06
2018-07-13T06:27:55.612Z,17.14
2018-07-13T06:28:34.603Z,17.23
2018-07-13T06:29:34.596Z,17.26
2018-07-13T06:30:34.584Z,17.37
2018-07-13T06:31:34.636Z,17.31
2018-07-13T06:32:34.564Z,17.44
2018-07-13T06:33:55.559Z,17.48
2018-07-13T06:34:34.559Z,17.48
2018-07-13T06:35:34.537Z,17.66
2018-07-13T06:36:34.521Z,17.68
2018-07-13T06:37:34.518Z,17.71
2018-07-13T06:38:34.504Z,17.75
2018-07-13T06:39:55.503Z,17.84
2018-07-13T06:40:34.544Z,17.96
2018-07-13T06:41:34.478Z,17.95
2018-07-13T06:42:34.463Z,18.07
2018-07-13T06:43:34.459Z,18.11
2018-07-13T06:44:34.449Z,18.11
2018-07-13T06:45:55.445Z,18.23
2018-07-13T06:46:34.428Z,18.27
2018-07-13T06:47:34.418Z,18.29
2018-07-13T06:48:34.458Z,18.39
2018-07-13T06:49:34.404Z,18.54
2018-07-13T06:50:34.519Z,18.50
2018-07-13T06:51:55.390Z,18.51
2018-07-13T06:52:34.381Z,18.55
2018-07-13T06:53:34.370Z,18.55
2018-07-13T06:54:34.355Z,18.76
2018-07-13T06:55:34.348Z,18.73
2018-07-13T06:56:34.339Z,18.75
2018-07-13T06:57:55.343Z,18.80
2018-07-13T06:58:34.316Z,18.85
2018-07-13T06:59:34.317Z,18.88
2018-07-13T07:00:34.300Z,18.87
2018-07-13T07:01:34.288Z,18.98
2018-07-13T07:02:34.281Z,18.98
2018-07-13T07:03:55.277Z,19.11
2018-07-13T07:04:34.268Z,19.14
2018-07-13T07:05:34.257Z,19.18
2018-07-13T07:06:34.248Z,19.22
2018-07-13T07:07:34.291Z,19.31
2018-07-13T07:08:34.235Z,19.32
2018-07-13T07:09:55.231Z,19.29
2018-07-13T07:10:34.216Z,19.39
2018-07-13T07:11:34.212Z,19.46
2018-07-13T07:12:34.209Z,19.44
2018-07-13T07:13:34.183Z,19.51
2018-07-13T07:14:34.180Z,19.48
2018-07-13T07:15:55.172Z,19.58
2018-07-13T07:16:34.162Z,19.62
2018-07-13T07:17:34.153Z,19.76
2018-07-13T07:18:34.143Z,19.71
2018-07-13T07:19:34.138Z,19.77
2018-07-13T07:20:34.131Z,19.81
2018-07-13T07:21:55.125Z,19.83
2018-07-13T07:22:34.110Z,19.91
2018-07-13T07:23:34.104Z,19.88
2018-07-13T07:24:34.137Z,19.94
2018-07-13T07:25:34.086Z,20.03
2018-07-13T07:26:34.080Z,20.02
2018-07-13T07:27:55.075Z,20.13
2018-07-13T07:28:34.059Z,20.17
2018-07-13T07:29:34.060Z,20.24
2018-07-13T07:30:34.062Z,20.26
2018-07-13T07:31:34.035Z,20.32
2018-07-13T07:32:34.035Z,20.39
2018-07-13T07:33:55.027Z,20.48
2018-07-13T07:34:34.013Z,20.48
2018-07-13T07:35:34.008Z,20.58
2018-07-13T07:36:34.000Z,20.55
2018-07-13T07:37:33.988Z,20.67
2018-07-13T07:38:34.111Z,20.70
2018-07-13T07:39:54.980Z,20.76
2018-07-13T07:40:33.971Z,20.76
2018-07-13T07:41:33.951Z,20.70
2018-07-13T07:42:33.959Z,20.79
2018-07-13T07:43:33.950Z,20.77
2018-07-13T07:44:33.935Z,20.74
2018-07-13T07:45:54.927Z,20.88
2018-07-13T07:46:33.918Z,20.84
2018-07-13T07:47:33.915Z,20.88
2018-07-13T07:48:33.903Z,20.82
2018-07-13T07:49:33.894Z,20.92
2018-07-13T07:50:33.884Z,20.94
2018-07-13T07:51:54.882Z,20.88
2018-07-13T07:52:33.868Z,20.95
2018-07-13T07:53:33.865Z,21.07
2018-07-13T07:54:33.861Z,21.01
2018-07-13T07:55:33.843Z,21.06
2018-07-13T07:56:33.838Z,21.13
2018-07-13T07:57:54.854Z,21.13
2018-07-13T07:58:33.828Z,21.19
2018-07-13T07:59:33.856Z,21.22
2018-07-13T08:00:33.803Z,21.22
2018-07-13T08:01:33.804Z,21.31
2018-07-13T08:02:33.799Z,21.22
2018-07-13T08:03:54.793Z,21.27
2018-07-13T08:04:33.797Z,21.28
2018-07-13T08:05:33.780Z,21.25
2018-07-13T08:06:33.914Z,21.38
2018-07-13T08:07:33.814Z,21.31
2018-07-13T08:08:33.755Z,21.17
2018-07-13T08:09:54.753Z,21.27
2018-07-13T08:10:33.740Z,21.28
2018-07-13T08:11:33.732Z,21.28
2018-07-13T08:12:33.723Z,21.25
2018-07-13T08:13:33.810Z,21.28
2018-07-13T08:14:33.829Z,21.29
2018-07-13T08:15:54.708Z,21.25
2018-07-13T08:16:33.692Z,21.34
2018-07-13T08:17:33.686Z,21.42
2018-07-13T08:18:33.681Z,21.31
2018-07-13T08:19:33.675Z,21.43
2018-07-13T08:20:33.673Z,21.43
2018-07-13T08:21:54.662Z,21.47
2018-07-13T08:22:33.646Z,21.50
2018-07-13T08:23:33.648Z,21.56
2018-07-13T08:24:33.631Z,21.53
2018-07-13T08:25:33.625Z,21.64
2018-07-13T08:26:33.650Z,21.54
2018-07-13T08:27:54.614Z,21.58
2018-07-13T08:28:33.603Z,21.47
2018-07-13T08:29:33.599Z,21.47
2018-07-13T08:30:33.590Z,21.40
2018-07-13T08:31:33.590Z,21.38
2018-07-13T08:32:33.578Z,21.42
2018-07-13T08:33:54.575Z,21.32
2018-07-13T08:34:33.563Z,21.40
2018-07-13T08:35:33.557Z,21.46
2018-07-13T08:36:33.544Z,21.47
2018-07-13T08:37:33.539Z,21.53
2018-07-13T08:38:33.537Z,21.56
2018-07-13T08:39:54.531Z,21.54
2018-07-13T08:40:33.518Z,21.67
2018-07-13T08:41:33.514Z,21.62
2018-07-13T08:42:33.501Z,21.68
2018-07-13T08:43:33.494Z,21.65
2018-07-13T08:44:33.485Z,21.79
2018-07-13T08:45:54.538Z,21.79
2018-07-13T08:46:33.479Z,21.77
2018-07-13T08:47:33.466Z,21.75
2018-07-13T08:48:33.453Z,21.88
2018-07-13T08:49:33.452Z,21.82
2018-07-13T08:50:33.447Z,21.88
2018-07-13T08:51:54.447Z,21.83
2018-07-13T08:52:33.434Z,21.84
2018-07-13T08:53:33.424Z,21.94
2018-07-13T08:54:33.416Z,22.00
2018-07-13T08:55:33.410Z,21.92
2018-07-13T08:56:33.400Z,21.88
2018-07-13T08:57:54.398Z,21.96
2018-07-13T08:58:33.389Z,21.88
2018-07-13T08:59:33.377Z,21.90
2018-07-13T09:00:33.369Z,21.80
2018-07-13T09:01:33.372Z,21.90
2018-07-13T09:02:33.363Z,21.90
2018-07-13T09:03:54.404Z,21.99
2018-07-13T09:04:33.371Z,22.06
2018-07-13T09:05:33.341Z,22.10
2018-07-13T09:06:33.347Z,22.20
2018-07-13T09:07:33.468Z,22.27
2018-07-13T09:08:33.324Z,22.37
2018-07-13T09:09:54.322Z,22.51
2018-07-13T09:10:33.315Z,22.36
2018-07-13T09:11:33.296Z,22.49
2018-07-13T09:12:33.290Z,22.46
2018-07-13T09:13:33.289Z,22.45
2018-07-13T09:14:33.277Z,22.51
2018-07-13T09:15:54.275Z,22.54
2018-07-13T09:16:33.262Z,22.57
2018-07-13T09:17:33.251Z,22.61
2018-07-13T09:18:33.262Z,22.70
2018-07-13T09:19:33.256Z,22.76
2018-07-13T09:20:33.235Z,22.72
2018-07-13T09:21:54.242Z,22.73
2018-07-13T09:22:33.218Z,22.79
2018-07-13T09:23:33.216Z,22.68
2018-07-13T09:24:33.210Z,22.67
2018-07-13T09:25:33.196Z,22.70
2018-07-13T09:26:33.195Z,22.62
2018-07-13T09:27:54.191Z,22.72
2018-07-13T09:28:33.182Z,22.73
2018-07-13T09:29:33.175Z,22.73
2018-07-13T09:30:33.170Z,22.68
2018-07-13T09:31:33.158Z,22.62
2018-07-13T09:32:33.156Z,22.58
2018-07-13T09:33:54.153Z,22.64
2018-07-13T09:34:33.148Z,22.76
2018-07-13T09:35:33.133Z,22.73
2018-07-13T09:36:33.123Z,22.75
2018-07-13T09:37:33.123Z,22.73
2018-07-13T09:38:33.136Z,22.80
2018-07-13T09:39:54.108Z,22.80
2018-07-13T09:40:33.102Z,22.77
2018-07-13T09:41:33.090Z,22.76
2018-07-13T09:42:33.084Z,22.88
2018-07-13T09:43:33.074Z,22.95
2018-07-13T09:44:33.070Z,23.02
2018-07-13T09:45:54.086Z,23.15
2018-07-13T09:46:33.078Z,23.15
2018-07-13T09:47:33.049Z,23.12
2018-07-13T09:48:33.048Z,23.19
2018-07-13T09:49:33.041Z,23.25
2018-07-13T09:50:33.040Z,23.28
2018-07-13T09:51:54.046Z,23.12
2018-07-13T09:52:33.021Z,23.33
2018-07-13T09:53:33.069Z,23.31
2018-07-13T09:54:33.029Z,23.36
2018-07-13T09:55:33.001Z,23.39
2018-07-13T09:56:32.996Z,23.33
2018-07-13T09:57:54.018Z,23.35
2018-07-13T09:58:32.982Z,23.33
2018-07-13T09:59:32.977Z,23.31
2018-07-13T10:00:33.003Z,23.31
2018-07-13T10:01:32.961Z,23.39
2018-07-13T10:02:32.954Z,23.42
2018-07-13T10:03:53.953Z,23.50
2018-07-13T10:04:32.949Z,23.58
2018-07-13T10:05:32.939Z,23.51
2018-07-13T10:06:32.937Z,23.50
2018-07-13T10:07:32.925Z,23.50
2018-07-13T10:08:32.913Z,23.54
2018-07-13T10:09:53.919Z,23.53
2018-07-13T10:10:32.900Z,23.47
2018-07-13T10:11:32.896Z,23.42
2018-07-13T10:12:32.888Z,23.54
2018-07-13T10:13:32.994Z,23.61
2018-07-13T10:14:32.884Z,23.65
2018-07-13T10:15:53.872Z,23.73
2018-07-13T10:16:32.864Z,23.78
2018-07-13T10:17:32.862Z,23.84
2018-07-13T10:18:32.855Z,23.76
2018-07-13T10:19:32.849Z,23.75
2018-07-13T10:20:32.843Z,23.68
2018-07-13T10:21:53.849Z,23.68
2018-07-13T10:22:32.831Z,23.79
2018-07-13T10:23:32.839Z,23.79
2018-07-13T10:24:32.813Z,23.88
2018-07-13T10:25:32.809Z,23.79
2018-07-13T10:26:32.804Z,23.80
2018-07-13T10:27:53.803Z,23.87
2018-07-13T10:28:32.789Z,23.85
2018-07-13T10:29:32.784Z,23.88
2018-07-13T10:30:32.782Z,23.87
2018-07-13T10:31:32.768Z,23.88
2018-07-13T10:32:32.762Z,23.93
2018-07-13T10:33:53.769Z,24.03
2018-07-13T10:34:32.757Z,24.06
2018-07-13T10:35:32.798Z,24.12
2018-07-13T10:36:32.740Z,24.06
2018-07-13T10:37:32.736Z,23.91
2018-07-13T10:38:32.731Z,24.00
2018-07-13T10:39:53.730Z,24.12
2018-07-13T10:40:32.718Z,24.08
2018-07-13T10:41:32.712Z,24.08
2018-07-13T10:42:32.701Z,24.13
2018-07-13T10:43:32.699Z,24.13
2018-07-13T10:44:32.691Z,24.16
2018-07-13T10:45:53.692Z,24.13
2018-07-13T10:46:32.679Z,24.30
2018-07-13T10:47:32.716Z,24.31
2018-07-13T10:48:32.670Z,24.22
2018-07-13T10:49:32.670Z,24.35
2018-07-13T10:50:32.663Z,24.43
2018-07-13T10:51:53.678Z,24.40
2018-07-13T10:52:32.645Z,24.37
2018-07-13T10:53:32.640Z,24.40
2018-07-13T10:54:32.635Z,24.46
2018-07-13T10:55:32.625Z,24.46
2018-07-13T10:56:32.622Z,24.52
2018-07-13T10:57:53.626Z,24.55
2018-07-13T10:58:32.658Z,24.67
2018-07-13T10:59:32.602Z,24.69
2018-07-13T11:00:32.595Z,24.67
2018-07-13T11:01:32.591Z,24.71
2018-07-13T11:02:32.580Z,24.76
2018-07-13T11:03:53.585Z,24.85
2018-07-13T11:04:32.576Z,24.88
2018-07-13T11:05:32.570Z,24.78
2018-07-13T11:06:32.563Z,24.77
2018-07-13T11:07:32.563Z,24.84
2018-07-13T11:08:32.554Z,24.69
2018-07-13T11:09:53.556Z,24.81
2018-07-13T11:10:32.543Z,24.83
2018-07-13T11:11:32.533Z,24.85
2018-07-13T11:12:32.528Z,24.88
2018-07-13T11:13:32.537Z,24.98
2018-07-13T11:14:32.524Z,24.84
2018-07-13T11:15:53.522Z,24.68
2018-07-13T11:16:32.512Z,24.67
2018-07-13T11:17:32.503Z,24.81
2018-07-13T11:18:32.497Z,24.77
2018-07-13T11:19:32.488Z,24.84
2018-07-13T11:20:32.526Z,24.91
2018-07-13T11:21:53.485Z,24.84
2018-07-13T11:22:32.467Z,24.78
2018-07-13T11:23:32.467Z,24.76
2018-07-13T11:24:32.468Z,24.81
2018-07-13T11:25:32.457Z,24.91
2018-07-13T11:26:32.452Z,24.87
2018-07-13T11:27:53.453Z,24.91
2018-07-13T11:28:32.441Z,25.03
2018-07-13T11:29:32.437Z,25.17
2018-07-13T11:30:32.430Z,25.21
2018-07-13T11:31:32.420Z,25.30
2018-07-13T11:32:32.411Z,25.33
2018-07-13T11:33:53.418Z,25.46
2018-07-13T11:34:32.414Z,25.42
2018-07-13T11:35:32.392Z,25.47
2018-07-13T11:36:32.394Z,25.36
2018-07-13T11:37:32.388Z,25.35
2018-07-13T11:38:32.383Z,25.47
2018-07-13T11:39:53.389Z,25.54
2018-07-13T11:40:32.374Z,25.47
2018-07-13T11:41:32.399Z,25.47
2018-07-13T11:42:32.369Z,25.43
2018-07-13T11:43:32.355Z,25.45
2018-07-13T11:44:32.348Z,25.39
2018-07-13T11:45:53.354Z,25.43
2018-07-13T11:46:32.339Z,25.45
2018-07-13T11:47:32.332Z,25.45
2018-07-13T11:48:32.327Z,25.51
2018-07-13T11:49:32.325Z,25.57
2018-07-13T11:50:32.319Z,25.67
2018-07-13T11:51:53.318Z,25.76
2018-07-13T11:52:32.313Z,25.75
2018-07-13T11:53:32.301Z,25.69
2018-07-13T11:54:32.302Z,25.73
2018-07-13T11:55:32.321Z,25.62
2018-07-13T11:56:32.292Z,25.58
2018-07-13T11:57:53.292Z,25.67
2018-07-13T11:58:32.278Z,25.73
2018-07-13T11:59:32.283Z,25.80
2018-07-13T12:00:32.285Z,25.91
2018-07-13T12:01:32.266Z,25.91
2018-07-13T12:02:32.262Z,25.91
2018-07-13T12:03:53.256Z,25.90
2018-07-13T12:04:32.291Z,26.02
2018-07-13T12:05:32.236Z,26.12
2018-07-13T12:06:32.239Z,25.98
2018-07-13T12:07:32.249Z,26.06
2018-07-13T12:08:32.233Z,26.09
2018-07-13T12:09:53.237Z,26.09
2018-07-13T12:10:32.224Z,26.25
2018-07-13T12:11:32.208Z,26.18
2018-07-13T12:12:32.222Z,26.17
2018-07-13T12:13:32.207Z,26.13
2018-07-13T12:14:32.201Z,26.15
2018-07-13T12:15:53.200Z,26.26
2018-07-13T12:16:32.196Z,26.23
2018-07-13T12:17:32.367Z,26.32
2018-07-13T12:18:32.187Z,26.26
2018-07-13T12:19:32.179Z,26.29
2018-07-13T12:20:32.171Z,26.23
2018-07-13T12:21:53.167Z,26.25
2018-07-13T12:22:32.163Z,26.25
2018-07-13T12:23:32.165Z,26.28
2018-07-13T12:24:32.149Z,26.30
2018-07-13T12:25:32.151Z,26.33
2018-07-13T12:26:32.139Z,26.35
2018-07-13T12:27:53.140Z,26.40
2018-07-13T12:28:32.131Z,26.40
2018-07-13T12:29:32.137Z,26.50
2018-07-13T12:30:32.125Z,26.58
2018-07-13T12:31:32.119Z,26.57
2018-07-13T12:32:32.176Z,26.69
2018-07-13T12:33:53.111Z,26.70
2018-07-13T12:34:32.110Z,26.67
2018-07-13T12:35:32.100Z,26.63
2018-07-13T12:36:32.094Z,26.67
2018-07-13T12:37:32.094Z,26.65
2018-07-13T12:38:32.082Z,26.72
2018-07-13T12:39:53.158Z,26.73
2018-07-13T12:40:32.076Z,26.80
2018-07-13T12:41:32.071Z,26.72
2018-07-13T12:42:32.072Z,26.73
2018-07-13T12:43:32.070Z,26.73
2018-07-13T12:44:32.064Z,26.73
2018-07-13T12:45:53.064Z,26.76
2018-07-13T12:46:32.049Z,26.84
2018-07-13T12:47:32.047Z,26.91
2018-07-13T12:48:32.041Z,26.92
2018-07-13T12:49:32.037Z,26.92
2018-07-13T12:50:32.048Z,26.95
2018-07-13T12:51:53.032Z,27.00
2018-07-13T12:52:32.032Z,26.99